Time;durP1;ratioP1;P1;durP2;ratioP2;P2;SDS_P1;SDS_P2;PMS_P1;PMS_P2;Temp;Humidity;BMP_temperature;BMP_pressure;BME280_temperature;BME280_humidity;BME280_pressure;Samples;Min_cycle;Max_cycle;Signal;HPM_P1;HPM_P2
2022/09/15 00:00:11;;;;;;;14.27;12.25;;;;;;;12.89;100.00;100651.19;5033595;28;20025;-65
2022/09/15 00:02:36;;;;;;;16.10;13.15;;;;;;;12.90;100.00;100655.53;5033174;28;20440;-64
2022/09/15 00:05:02;;;;;;;18.10;12.30;;;;;;;12.92;100.00;100658.16;5033601;28;20029;-64
2022/09/15 00:07:27;;;;;;;15.52;11.88;;;;;;;12.93;100.00;100654.75;5033066;28;20530;-65
2022/09/15 00:09:52;;;;;;;16.33;12.85;;;;;;;12.92;100.00;100655.56;5033632;28;20017;-65
2022/09/15 00:12:18;;;;;;;17.50;12.70;;;;;;;12.90;100.00;100652.94;5034459;28;20021;-64
2022/09/15 00:14:43;;;;;;;13.40;11.98;;;;;;;12.91;100.00;100656.44;5033474;28;20385;-64
2022/09/15 00:17:09;;;;;;;13.55;11.88;;;;;;;12.89;100.00;100656.41;5033101;28;20017;-65
2022/09/15 00:19:34;;;;;;;15.95;12.52;;;;;;;12.88;100.00;100657.22;5033845;28;20079;-64
2022/09/15 00:22:00;;;;;;;12.88;11.57;;;;;;;12.86;100.00;100653.75;5033700;28;20021;-65
2022/09/15 00:24:25;;;;;;;16.92;12.60;;;;;;;12.83;100.00;100658.88;5033650;28;20104;-64
2022/09/15 00:26:50;;;;;;;14.32;12.07;;;;;;;12.80;100.00;100653.63;5033198;28;20547;-64
2022/09/15 00:29:15;;;;;;;12.77;11.38;;;;;;;12.77;100.00;100651.81;5033286;28;20029;-64
2022/09/15 00:31:41;;;;;;;15.95;11.93;;;;;;;12.74;100.00;100649.16;5031314;28;20022;-65
2022/09/15 00:34:06;;;;;;;17.23;12.50;;;;;;;12.70;100.00;100636.97;5033265;28;20385;-64
2022/09/15 00:36:32;;;;;;;14.98;11.88;;;;;;;12.67;100.00;100642.97;5032384;28;20056;-64
2022/09/15 00:38:57;;;;;;;13.88;12.43;;;;;;;12.64;100.00;100637.72;5033470;28;20029;-64
2022/09/15 00:41:23;;;;;;;13.38;12.00;;;;;;;12.61;100.00;100637.63;5033384;28;20366;-64
2022/09/15 00:43:59;;;;;;;17.95;12.55;;;;;;;12.59;100.00;100639.34;5032430;28;20024;-64
2022/09/15 00:46:29;;;;;;;14.50;13.05;;;;;;;12.58;100.00;100641.06;5015591;28;20033;-64
2022/09/15 00:49:15;;;;;;;15.90;13.70;;;;;;;12.58;100.00;100642.78;5032797;28;20025;-64
2022/09/15 00:51:51;;;;;;;22.08;14.73;;;;;;;12.59;100.00;100634.16;5014969;28;20025;-64
2022/09/15 00:54:21;;;;;;;19.27;14.63;;;;;;;12.60;100.00;100647.16;5033003;28;20025;-64
2022/09/15 00:56:51;;;;;;;19.33;15.48;;;;;;;12.62;100.00;100634.19;5033731;28;20021;-63
2022/09/15 00:59:21;;;;;;;19.55;15.43;;;;;;;12.66;100.00;100636.03;5032830;28;20113;-63
2022/09/15 01:01:54;;;;;;;18.70;15.03;;;;;;;12.68;100.00;100639.50;5033115;28;20108;-64
2022/09/15 01:04:19;;;;;;;18.92;16.00;;;;;;;12.71;100.00;100636.09;5033686;28;20482;-64
2022/09/15 01:06:51;;;;;;;16.77;14.98;;;;;;;12.73;100.00;100642.22;5032998;28;20056;-63
2022/09/15 01:09:29;;;;;;;16.13;14.45;;;;;;;12.76;100.00;100643.97;5028897;28;20032;-64
2022/09/15 01:11:55;;;;;;;19.40;15.10;;;;;;;12.78;100.00;100644.91;5029680;28;20029;-64
2022/09/15 01:14:21;;;;;;;16.88;15.15;;;;;;;12.79;100.00;100642.31;5030151;28;20021;-64
2022/09/15 01:17:05;;;;;;;16.60;14.20;;;;;;;12.81;100.00;100639.75;5029765;28;20103;-64
2022/09/15 01:20:19;;;;;;;15.88;14.38;;;;;;;12.83;100.00;100638.94;5029712;28;20037;-64
2022/09/15 01:23:08;;;;;;;19.73;15.73;;;;;;;12.85;100.00;100638.97;5011425;28;20456;-64
2022/09/15 01:25:58;;;;;;;15.95;14.20;;;;;;;12.86;100.00;100656.34;5030255;28;20406;-63
2022/09/15 01:29:09;;;;;;;22.50;16.30;;;;;;;12.88;100.00;100661.56;5029673;28;20052;-64
2022/09/15 01:33:02;;;;;;;19.35;15.93;;;;;;;12.88;100.00;100654.63;4998478;28;20029;-64
2022/09/15 01:34:35;;;;;;;19.52;16.58;;;;;;;12.90;100.00;100645.13;5028996;28;20080;-64
2022/09/15 01:37:08;;;;;;;19.85;16.30;;;;;;;12.89;100.00;100642.50;5029207;28;20078;-64
2022/09/15 01:39:40;;;;;;;18.85;15.65;;;;;;;12.87;100.00;100642.47;5029550;28;20040;-64
2022/09/15 01:42:10;;;;;;;20.83;16.33;;;;;;;12.88;100.00;100646.81;4997664;28;20149;-64
2022/09/15 01:44:44;;;;;;;17.42;15.57;;;;;;;12.88;100.00;100646.81;4990213;28;20038;-64
2022/09/15 01:47:12;;;;;;;18.67;16.30;;;;;;;12.88;100.00;100645.97;4990266;28;20018;-64
2022/09/15 01:49:52;;;;;;;21.08;16.23;;;;;;;12.87;100.00;100650.28;4989433;28;20438;-64
2022/09/15 01:52:20;;;;;;;19.10;16.45;;;;;;;12.87;100.00;100647.69;4989813;28;20044;-64
2022/09/15 01:54:49;;;;;;;20.58;17.80;;;;;;;12.88;100.00;100645.97;4989468;28;20113;-63
2022/09/15 01:57:16;;;;;;;19.10;16.90;;;;;;;12.89;100.00;100643.41;4987509;28;20030;-63
2022/09/15 01:59:43;;;;;;;19.20;15.75;;;;;;;12.89;100.00;100648.59;4989740;28;20030;-64
2022/09/15 02:02:18;;;;;;;19.95;16.02;;;;;;;12.89;100.00;100648.59;4989855;28;20030;-64
2022/09/15 02:04:54;;;;;;;18.58;16.52;;;;;;;12.90;100.00;100645.13;4989782;28;20031;-64
2022/09/15 02:07:43;;;;;;;21.45;16.58;;;;;;;12.89;100.00;100646.00;4989559;28;20060;-63
2022/09/15 02:10:42;;;;;;;17.77;15.82;;;;;;;12.89;100.00;100637.31;4989093;28;20382;-64
2022/09/15 02:13:15;;;;;;;19.73;16.40;;;;;;;12.87;100.00;100634.69;4989852;28;20030;-64
2022/09/15 02:15:47;;;;;;;18.92;16.92;;;;;;;12.85;100.00;100636.38;4989571;28;20037;-64
2022/09/15 02:18:21;;;;;;;19.13;15.05;;;;;;;12.83;100.00;100635.47;4987735;28;20038;-64
2022/09/15 02:20:57;;;;;;;20.17;16.42;;;;;;;12.80;100.00;100633.69;4989461;28;20081;-63
2022/09/15 02:23:27;;;;;;;20.02;16.45;;;;;;;12.79;100.00;100636.28;4989922;28;20073;-63
2022/09/15 02:26:00;;;;;;;21.23;17.23;;;;;;;12.79;100.00;100636.28;4989776;28;20026;-63
2022/09/15 02:28:30;;;;;;;19.85;17.02;;;;;;;12.76;100.00;100631.88;4989661;28;20781;-63
2022/09/15 02:30:58;;;;;;;17.30;15.57;;;;;;;12.78;100.00;100634.50;4988992;28;20034;-63
2022/09/15 02:33:28;;;;;;;23.05;16.80;;;;;;;12.78;100.00;100635.38;4989199;28;20026;-63
2022/09/15 02:35:54;;;;;;;18.17;16.27;;;;;;;12.79;100.00;100636.28;4989318;28;20034;-63
2022/09/15 02:38:20;;;;;;;17.85;15.60;;;;;;;12.79;100.00;100631.06;4988069;28;20061;-63
2022/09/15 02:40:46;;;;;;;21.83;16.88;;;;;;;12.77;100.00;100632.75;4988999;28;20022;-63
2022/09/15 02:43:15;;;;;;;17.88;15.95;;;;;;;12.78;100.00;100634.50;5027770;28;20120;-63
2022/09/15 02:45:41;;;;;;;17.23;14.93;;;;;;;12.76;100.00;100638.78;5027992;28;20017;-63
2022/09/15 02:48:08;;;;;;;18.13;16.23;;;;;;;12.73;100.00;100643.09;5028507;28;20021;-63
2022/09/15 02:50:34;;;;;;;17.83;15.80;;;;;;;12.70;100.00;100640.41;5027826;28;20033;-63
2022/09/15 02:52:59;;;;;;;16.05;14.45;;;;;;;12.67;100.00;100647.28;5027880;28;20037;-63
2022/09/15 02:55:28;;;;;;;18.33;15.80;;;;;;;12.63;100.00;100635.09;5027899;28;20128;-62
2022/09/15 02:57:55;;;;;;;19.25;15.45;;;;;;;12.61;100.00;100642.81;5027915;28;20017;-63
2022/09/15 03:00:20;;;;;;;18.90;15.15;;;;;;;12.54;100.00;100635.78;5028016;28;20025;-63
2022/09/15 03:02:51;;;;;;;16.10;14.55;;;;;;;12.49;100.00;100646.94;5027638;28;20025;-63
2022/09/15 03:05:21;;;;;;;16.40;14.70;;;;;;;12.42;100.00;100636.38;5027716;28;20033;-63
2022/09/15 03:07:47;;;;;;;17.77;15.00;;;;;;;12.37;100.00;100644.09;5027419;28;20056;-63
2022/09/15 03:10:13;;;;;;;16.90;15.15;;;;;;;12.33;100.00;100645.75;5028000;28;20406;-62
2022/09/15 03:12:40;;;;;;;17.77;15.93;;;;;;;12.29;100.00;100650.81;5028211;28;20465;-63
2022/09/15 03:15:08;;;;;;;18.10;15.73;;;;;;;12.27;100.00;100647.34;5027624;28;20484;-63
2022/09/15 03:17:34;;;;;;;17.38;15.57;;;;;;;12.27;100.00;100658.59;5027823;28;20033;-62
2022/09/15 03:20:00;;;;;;;17.02;15.43;;;;;;;12.29;100.00;100661.22;5027497;28;20021;-63
2022/09/15 03:22:25;;;;;;;16.95;15.25;;;;;;;12.25;100.00;100650.75;5027448;28;20513;-63
2022/09/15 03:24:50;;;;;;;18.25;16.20;;;;;;;12.23;100.00;100652.44;5027555;28;20083;-63
2022/09/15 03:27:16;;;;;;;18.77;16.85;;;;;;;12.23;100.00;100662.84;5028010;28;20108;-63
2022/09/15 03:29:41;;;;;;;17.80;16.10;;;;;;;12.22;100.00;100666.28;5027834;28;20216;-63
2022/09/15 03:32:07;;;;;;;18.50;16.45;;;;;;;12.20;100.00;100662.78;5026569;28;20021;-63
2022/09/15 03:34:32;;;;;;;18.63;16.63;;;;;;;12.21;100.00;100661.06;5027695;28;20359;-63
2022/09/15 03:36:57;;;;;;;18.65;16.80;;;;;;;12.22;100.00;100668.00;5027050;28;20022;-63
2022/09/15 03:39:23;;;;;;;19.15;17.27;;;;;;;12.24;100.00;100671.50;5027329;28;20397;-62
2022/09/15 03:41:48;;;;;;;19.52;17.48;;;;;;;12.27;100.00;100671.56;5026464;28;20052;-63
2022/09/15 03:44:14;;;;;;;19.20;17.30;;;;;;;12.30;100.00;100682.06;5027031;28;20063;-63
2022/09/15 03:46:39;;;;;;;20.13;17.33;;;;;;;12.33;100.00;100684.72;5026828;28;20030;-63
2022/09/15 03:49:04;;;;;;;19.08;17.17;;;;;;;12.36;100.00;100683.88;5027175;28;20026;-63
2022/09/15 03:51:30;;;;;;;20.55;18.33;;;;;;;12.38;100.00;100682.22;5027057;28;20466;-63
2022/09/15 03:53:55;;;;;;;19.60;17.55;;;;;;;12.40;100.00;100680.53;5027127;28;20223;-63
2022/09/15 03:56:24;;;;;;;20.08;17.73;;;;;;;12.42;100.00;100677.97;5027450;28;20096;-63
2022/09/15 03:58:50;;;;;;;19.98;17.98;;;;;;;12.43;100.00;100679.72;5026237;28;20048;-64
2022/09/15 04:01:17;;;;;;;20.02;17.90;;;;;;;12.45;100.00;100678.91;5027317;28;20473;-63
2022/09/15 04:03:43;;;;;;;18.67;16.73;;;;;;;12.48;100.00;100668.56;5027426;28;20022;-63
2022/09/15 04:06:08;;;;;;;20.77;18.58;;;;;;;12.51;100.00;100666.88;5026913;28;20028;-63
2022/09/15 04:08:34;;;;;;;17.45;15.73;;;;;;;12.52;100.00;100668.66;5027478;28;20026;-63
2022/09/15 04:11:06;;;;;;;20.05;17.77;;;;;;;12.53;100.00;100667.78;5027306;28;20448;-63
2022/09/15 04:13:32;;;;;;;19.92;16.83;;;;;;;12.52;100.00;100672.09;5026487;28;20435;-63
2022/09/15 04:16:03;;;;;;;21.10;17.08;;;;;;;12.51;100.00;100667.78;5027079;28;20036;-63
2022/09/15 04:18:29;;;;;;;19.00;16.60;;;;;;;12.50;100.00;100668.63;5027080;28;20057;-63
2022/09/15 04:21:01;;;;;;;20.77;17.45;;;;;;;12.49;100.00;100675.53;5026692;28;20025;-63
2022/09/15 04:23:27;;;;;;;19.45;17.40;;;;;;;12.49;100.00;100667.75;5027128;28;20044;-63
2022/09/15 04:26:00;;;;;;;18.70;16.73;;;;;;;12.48;100.00;100673.75;5026466;28;20029;-63
2022/09/15 04:28:27;;;;;;;19.67;17.60;;;;;;;12.47;100.00;100672.03;5026797;28;20037;-63
2022/09/15 04:31:01;;;;;;;19.42;16.88;;;;;;;12.47;100.00;100671.13;5026582;28;20041;-63
2022/09/15 04:33:26;;;;;;;19.70;17.20;;;;;;;12.44;100.00;100671.97;5008949;28;20041;-63
2022/09/15 04:36:00;;;;;;;19.75;17.35;;;;;;;12.42;100.00;100663.25;5008232;28;20389;-63
2022/09/15 04:38:26;;;;;;;19.30;17.27;;;;;;;12.42;100.00;100668.44;5024949;28;20038;-63
2022/09/15 04:40:51;;;;;;;19.17;17.27;;;;;;;12.41;100.00;100668.41;5025490;28;20091;-63
2022/09/15 04:43:17;;;;;;;21.60;18.30;;;;;;;12.40;100.00;100670.13;5027445;28;20104;-62
2022/09/15 04:45:42;;;;;;;20.10;18.02;;;;;;;12.40;100.00;100670.13;5030281;28;20484;-63
2022/09/15 04:48:07;;;;;;;23.38;19.27;;;;;;;12.40;100.00;100677.94;5029505;28;20087;-63
2022/09/15 04:50:32;;;;;;;20.40;18.17;;;;;;;12.41;100.00;100671.88;5030162;28;20053;-63
2022/09/15 04:52:58;;;;;;;20.02;17.92;;;;;;;12.43;100.00;100671.94;5030314;28;20033;-63
2022/09/15 04:55:23;;;;;;;19.23;17.27;;;;;;;12.44;100.00;100671.97;5029934;28;20026;-63
2022/09/15 04:57:48;;;;;;;21.17;18.95;;;;;;;12.44;100.00;100666.75;5029906;28;20028;-63
2022/09/15 05:00:14;;;;;;;20.70;18.58;;;;;;;12.44;100.00;100677.16;5030331;28;20021;-62
2022/09/15 05:02:40;;;;;;;20.48;18.30;;;;;;;12.45;100.00;100673.69;5030306;28;20025;-63
2022/09/15 05:05:05;;;;;;;20.38;18.17;;;;;;;12.48;100.00;100675.50;5029345;28;20034;-63
2022/09/15 05:07:30;;;;;;;19.08;17.17;;;;;;;12.48;100.00;100678.09;5028665;28;20370;-63
2022/09/15 05:09:56;;;;;;;19.67;17.67;;;;;;;12.49;100.00;100685.94;5028493;28;20021;-63
2022/09/15 05:12:21;;;;;;;18.73;16.73;;;;;;;12.52;100.00;100681.66;5028248;28;20414;-64
2022/09/15 05:14:46;;;;;;;19.50;17.42;;;;;;;12.52;100.00;100677.31;5027977;28;20024;-63
2022/09/15 05:17:11;;;;;;;18.00;16.15;;;;;;;12.48;100.00;100673.75;5027696;28;20080;-63
2022/09/15 05:19:37;;;;;;;21.58;16.65;;;;;;;12.45;100.00;100673.69;5027221;28;20039;-63
2022/09/15 05:22:02;;;;;;;17.30;15.60;;;;;;;12.43;100.00;100670.19;5029502;28;20764;-63
2022/09/15 05:24:27;;;;;;;20.02;16.27;;;;;;;12.41;100.00;100671.88;5029362;28;20021;-62
2022/09/15 05:26:52;;;;;;;19.20;17.20;;;;;;;12.39;100.00;100665.78;5029973;28;20025;-63
2022/09/15 05:29:18;;;;;;;18.55;16.55;;;;;;;12.37;100.00;100670.06;5029745;28;20036;-62
2022/09/15 05:31:43;;;;;;;18.60;16.73;;;;;;;12.35;100.00;100671.75;5029303;28;20056;-62
2022/09/15 05:34:10;;;;;;;22.73;17.08;;;;;;;12.36;100.00;100666.59;5029710;28;20436;-63
2022/09/15 05:36:35;;;;;;;19.02;17.13;;;;;;;12.38;100.00;100674.41;5029633;28;20018;-63
2022/09/15 05:39:00;;;;;;;18.88;16.98;;;;;;;12.40;100.00;100680.53;5029629;28;20092;-63
2022/09/15 05:41:27;;;;;;;19.90;16.42;;;;;;;12.42;100.00;100684.03;5029204;28;20518;-63
2022/09/15 05:43:56;;;;;;;22.33;18.20;;;;;;;12.41;100.00;100686.59;5041386;28;20416;-63
2022/09/15 05:46:24;;;;;;;19.27;17.23;;;;;;;12.41;100.00;100691.81;5029347;28;20076;-63
2022/09/15 05:48:53;;;;;;;20.15;18.25;;;;;;;12.42;100.00;100693.53;5028382;28;20082;-63
2022/09/15 05:51:18;;;;;;;19.30;17.35;;;;;;;12.44;100.00;100689.28;5029259;28;20030;-63
2022/09/15 05:53:44;;;;;;;22.20;17.85;;;;;;;12.47;100.00;100692.81;5029114;28;20029;-64
2022/09/15 05:56:11;;;;;;;20.48;17.65;;;;;;;12.52;100.00;100699.84;5031310;28;20047;-63
2022/09/15 05:58:39;;;;;;;19.20;16.88;;;;;;;12.55;100.00;100705.97;5028774;28;20369;-63
2022/09/15 06:01:27;;;;;;;19.38;17.35;;;;;;;12.59;100.00;100704.31;5028422;28;20021;-64
2022/09/15 06:03:53;;;;;;;18.90;16.90;;;;;;;12.62;100.00;100704.38;5028726;28;20028;-63
2022/09/15 06:06:20;;;;;;;18.15;16.25;;;;;;;12.65;100.00;100711.34;5037226;28;20384;-64
2022/09/15 06:08:48;;;;;;;22.88;18.48;;;;;;;12.68;100.00;100707.09;5036121;28;20037;-63
2022/09/15 06:11:20;;;;;;;19.40;17.35;;;;;;;12.72;100.00;100708.94;5029251;28;20045;-63
2022/09/15 06:13:46;;;;;;;20.17;17.10;;;;;;;12.76;100.00;100719.38;5027218;28;20037;-64
2022/09/15 06:16:14;;;;;;;20.50;17.33;;;;;;;12.78;100.00;100721.19;5027447;28;20059;-64
2022/09/15 06:18:40;;;;;;;19.80;16.92;;;;;;;12.80;100.00;100718.63;5024811;28;20104;-64
2022/09/15 06:21:11;;;;;;;18.70;16.83;;;;;;;12.84;100.00;100728.25;5027980;28;20029;-63
2022/09/15 06:23:37;;;;;;;18.80;16.33;;;;;;;12.87;100.00;100719.63;5027045;28;20029;-64
2022/09/15 06:26:05;;;;;;;16.83;15.15;;;;;;;12.88;100.00;100724.84;5026197;28;20035;-63
2022/09/15 06:28:30;;;;;;;20.38;17.00;;;;;;;12.91;100.00;100729.25;5023961;28;20022;-64
2022/09/15 06:30:55;;;;;;;18.77;16.77;;;;;;;12.93;100.00;100732.75;5025502;28;20918;-64
2022/09/15 06:33:21;;;;;;;21.42;16.95;;;;;;;12.96;100.00;100725.91;5026320;28;20018;-64
2022/09/15 06:35:46;;;;;;;19.85;17.80;;;;;;;13.01;100.00;100730.28;5034111;28;20032;-64
2022/09/15 06:38:11;;;;;;;18.48;16.27;;;;;;;13.05;100.00;100727.81;5026569;28;20029;-64
2022/09/15 06:40:37;;;;;;;19.88;17.85;;;;;;;13.08;100.00;100727.84;5026680;28;20494;-63
2022/09/15 06:43:02;;;;;;;19.63;17.70;;;;;;;13.11;100.00;100732.25;5025307;28;20517;-63
2022/09/15 06:45:29;;;;;;;18.70;16.92;;;;;;;13.17;100.00;100737.56;5008903;28;20037;-63
2022/09/15 06:47:54;;;;;;;18.10;16.17;;;;;;;13.21;100.00;100736.78;5027814;28;20037;-64
2022/09/15 06:50:20;;;;;;;17.63;16.00;;;;;;;13.25;100.00;100742.94;5028001;28;20026;-64
2022/09/15 06:52:45;;;;;;;17.83;15.95;;;;;;;13.29;100.00;100743.88;5028030;28;20426;-64
2022/09/15 06:55:11;;;;;;;19.08;17.05;;;;;;;13.32;100.00;100752.59;5027732;28;20216;-63
2022/09/15 06:57:36;;;;;;;17.63;15.82;;;;;;;13.33;100.00;100753.47;5026161;28;20017;-64
2022/09/15 07:00:04;;;;;;;18.45;15.27;;;;;;;13.35;100.00;100756.13;5031196;28;20017;-63
2022/09/15 07:02:30;;;;;;;17.60;15.80;;;;;;;13.36;100.00;100758.75;5036761;28;20033;-64
2022/09/15 07:04:55;;;;;;;16.48;14.82;;;;;;;13.41;100.00;100764.91;5036987;28;20504;-64
2022/09/15 07:07:20;;;;;;;17.95;16.30;;;;;;;13.49;100.00;100766.78;5027614;28;20120;-64
2022/09/15 07:09:45;;;;;;;19.52;17.50;;;;;;;13.67;100.00;100759.34;5027680;28;20067;-64
2022/09/15 07:12:11;;;;;;;18.15;15.35;;;;;;;14.09;100.00;100771.31;5027191;28;20086;-64
2022/09/15 07:14:36;;;;;;;16.67;15.07;;;;;;;14.35;100.00;100769.13;5024427;28;20037;-64
2022/09/15 07:17:01;;;;;;;16.38;13.85;;;;;;;14.54;100.00;100774.59;5030780;28;20542;-64
2022/09/15 07:19:27;;;;;;;12.90;11.48;;;;;;;14.64;100.00;100775.63;5035564;28;20025;-64
2022/09/15 07:21:52;;;;;;;14.88;12.60;;;;;;;14.69;100.00;100770.47;5027952;28;20128;-64
2022/09/15 07:24:18;;;;;;;13.48;12.05;;;;;;;14.70;100.00;100780.03;5028007;28;20018;-63
2022/09/15 07:26:43;;;;;;;13.02;10.57;;;;;;;14.69;100.00;100778.28;5026973;28;20071;-64
2022/09/15 07:29:08;;;;;;;10.90;9.82;;;;;;;14.70;100.00;100777.44;5029683;28;20029;-64
2022/09/15 07:31:36;;;;;;;12.32;11.18;;;;;;;14.71;100.00;100773.97;5028167;28;20028;-64
2022/09/15 07:34:02;;;;;;;12.70;11.45;;;;;;;14.74;100.00;100776.63;5026480;28;20041;-64
2022/09/15 07:36:29;;;;;;;13.52;11.23;;;;;;;14.72;100.00;100780.94;5026570;28;20554;-64
2022/09/15 07:38:54;;;;;;;12.07;10.82;;;;;;;14.69;100.00;100783.50;5027072;28;20017;-64
2022/09/15 07:41:26;;;;;;;16.48;12.43;;;;;;;14.63;100.00;100785.19;5026442;28;20045;-64
2022/09/15 07:43:54;;;;;;;15.25;11.30;;;;;;;14.60;100.00;100779.94;5038722;28;20025;-64
2022/09/15 07:46:21;;;;;;;12.60;10.90;;;;;;;14.60;100.00;100789.47;5027659;28;20030;-64
2022/09/15 07:48:48;;;;;;;13.48;12.07;;;;;;;14.61;100.00;100788.59;5031667;28;20021;-64
2022/09/15 07:51:14;;;;;;;13.40;11.30;;;;;;;14.62;100.00;100792.97;5027461;28;20013;-64
2022/09/15 07:53:40;;;;;;;12.00;10.88;;;;;;;14.61;100.00;100792.09;5027014;28;20033;-64
2022/09/15 07:56:05;;;;;;;13.60;12.30;;;;;;;14.65;100.00;100793.91;5026042;28;20025;-64
2022/09/15 07:58:32;;;;;;;16.17;12.45;;;;;;;14.67;100.00;100795.66;5023745;28;20037;-65
2022/09/15 08:01:10;;;;;;;13.75;10.63;;;;;;;14.64;100.00;100802.56;5025203;28;20167;-64
2022/09/15 08:03:39;;;;;;;12.68;10.20;;;;;;;14.64;100.00;100812.13;5025098;28;20054;-64
2022/09/15 08:06:04;;;;;;;12.30;9.63;;;;;;;14.63;100.00;100806.03;5026120;28;20480;-64
2022/09/15 08:08:29;;;;;;;12.63;10.23;;;;;;;14.63;100.00;100806.03;5025110;28;20100;-64
2022/09/15 08:10:55;;;;;;;11.50;10.40;;;;;;;14.65;100.00;100817.38;5025168;28;20025;-64
2022/09/15 08:13:21;;;;;;;13.32;11.85;;;;;;;14.64;100.00;100807.78;5025352;28;20422;-64
2022/09/15 08:15:46;;;;;;;11.48;10.38;;;;;;;14.64;100.00;100818.22;5027076;28;20434;-64
2022/09/15 08:18:12;;;;;;;15.98;11.68;;;;;;;14.67;100.00;100811.28;5029179;28;20448;-64
2022/09/15 08:20:38;;;;;;;12.13;10.85;;;;;;;14.68;100.00;100815.66;5031252;28;20398;-64
2022/09/15 08:23:04;;;;;;;12.38;11.18;;;;;;;14.72;100.00;100814.84;5030447;28;20029;-63
2022/09/15 08:25:29;;;;;;;12.30;11.13;;;;;;;14.77;100.00;100810.56;5031243;28;20370;-64
2022/09/15 08:27:55;;;;;;;12.23;10.93;;;;;;;14.83;100.00;100818.53;5030449;28;20029;-64
2022/09/15 08:30:21;;;;;;;11.05;9.82;;;;;;;14.89;100.00;100820.34;5030183;28;20021;-64
2022/09/15 08:32:46;;;;;;;12.75;9.90;;;;;;;14.95;100.00;100816.94;5030720;28;20029;-63
2022/09/15 08:35:12;;;;;;;11.90;10.07;;;;;;;14.99;100.00;100827.44;5030156;28;20104;-64
2022/09/15 08:37:37;;;;;;;11.40;9.52;;;;;;;15.03;100.00;100825.75;5030741;28;20028;-64
2022/09/15 08:40:03;;;;;;;10.57;8.82;;;;;;;15.09;100.00;100841.47;5030239;28;20025;-64
2022/09/15 08:42:29;;;;;;;11.02;9.27;;;;;;;15.10;100.00;100832.81;5029478;28;20045;-64
2022/09/15 08:45:20;;;;;;;13.60;8.30;;;;;;;15.10;100.00;100835.41;5030150;28;20048;-64
2022/09/15 08:47:46;;;;;;;;;;;;;;;15.10;100.00;100831.91;5022379;28;20041;-63
2022/09/15 08:50:38;;;;;;;8.82;7.78;;;;;;;15.10;100.00;100838.03;5030590;28;20288;-63
2022/09/15 08:53:30;;;;;;;8.98;7.15;;;;;;;15.07;100.00;100840.59;5027296;28;20040;-64
2022/09/15 08:55:58;;;;;;;14.30;7.32;;;;;;;15.08;100.00;100846.66;5029897;28;20503;-64
2022/09/15 08:58:27;;;;;;;9.05;6.78;;;;;;;15.09;100.00;100836.25;5029970;28;20112;-64
2022/09/15 09:01:18;;;;;;;10.32;7.07;;;;;;;15.12;100.00;100840.66;5030242;28;20448;-64
2022/09/15 09:04:02;;;;;;;10.65;7.20;;;;;;;15.15;100.00;100845.03;5030509;28;20095;-64
2022/09/15 09:06:52;;;;;;;9.00;6.97;;;;;;;15.19;100.00;100850.31;5030242;28;20033;-65
2022/09/15 09:09:48;;;;;;;10.07;6.97;;;;;;;15.26;100.00;100859.09;5029192;28;20040;-65
2022/09/15 09:12:43;;;;;;;10.82;8.07;;;;;;;15.35;100.00;100874.88;5024730;28;20051;-65
2022/09/15 09:15:27;;;;;;;11.63;8.48;;;;;;;15.42;100.00;100870.59;5029982;28;20036;-65
2022/09/15 09:18:12;;;;;;;8.13;7.32;;;;;;;15.48;100.00;100864.59;5029776;28;20366;-64
2022/09/15 09:21:07;;;;;;;9.98;8.20;;;;;;;15.47;100.00;100863.69;5029884;28;20425;-65
2022/09/15 09:23:49;;;;;;;8.20;7.00;;;;;;;15.48;100.00;100868.09;5029510;28;20032;-65
2022/09/15 09:26:14;;;;;;;9.18;7.80;;;;;;;15.48;100.00;100864.59;5029751;28;20021;-65
2022/09/15 09:28:56;;;;;;;9.00;7.97;;;;;;;15.48;100.00;100864.59;5029229;28;20348;-65
2022/09/15 09:31:24;;;;;;;10.48;8.15;;;;;;;15.52;100.00;100875.94;5029443;28;20029;-65
2022/09/15 09:34:14;;;;;;;8.93;8.05;;;;;;;15.51;100.00;100869.84;5029487;28;20075;-65
2022/09/15 09:36:39;;;;;;;11.55;8.82;;;;;;;15.55;100.00;100870.75;5029595;28;20463;-64
2022/09/15 09:39:05;;;;;;;9.07;6.88;;;;;;;15.53;100.00;100867.22;5030040;28;20033;-66
2022/09/15 09:41:35;;;;;;;7.40;6.18;;;;;;;15.52;100.00;100874.22;5029467;28;20048;-65
2022/09/15 09:44:03;;;;;;;9.98;6.97;;;;;;;15.50;100.00;100873.31;5028901;28;20017;-65
2022/09/15 09:46:30;;;;;;;7.63;6.75;;;;;;;15.47;100.00;100868.06;5029519;28;20033;-65
2022/09/15 09:48:55;;;;;;;10.75;6.57;;;;;;;15.43;100.00;100872.38;5029122;28;20080;-65
2022/09/15 09:51:30;;;;;;;9.35;7.00;;;;;;;15.39;100.00;100867.06;5029253;28;20057;-65
2022/09/15 09:53:55;;;;;;;9.15;7.15;;;;;;;15.35;100.00;100874.88;5028883;28;20037;-65
2022/09/15 09:56:25;;;;;;;9.82;7.43;;;;;;;15.29;100.00;100872.16;5029215;28;20040;-65
2022/09/15 09:58:51;;;;;;;8.90;7.35;;;;;;;15.23;100.00;100874.72;5028974;28;20041;-65
2022/09/15 10:01:20;;;;;;;8.93;7.82;;;;;;;15.21;100.00;100881.66;5029360;28;20025;-65
2022/09/15 10:03:45;;;;;;;8.48;7.50;;;;;;;15.18;100.00;100877.25;5028948;28;20026;-65
2022/09/15 10:06:19;;;;;;;11.77;7.78;;;;;;;15.18;100.00;100876.41;5029005;28;20028;-65
2022/09/15 10:08:58;;;;;;;10.88;8.18;;;;;;;15.19;100.00;100878.13;5029012;28;20111;-64
2022/09/15 10:11:42;;;;;;;9.48;8.13;;;;;;;15.20;100.00;100878.16;5028954;28;20033;-64
2022/09/15 10:14:18;;;;;;;10.73;8.52;;;;;;;15.24;100.00;100884.28;5028736;28;20428;-64
2022/09/15 10:16:54;;;;;;;10.98;9.88;;;;;;;15.28;100.00;100887.81;5028947;28;20049;-65
2022/09/15 10:19:19;;;;;;;11.00;9.25;;;;;;;15.31;100.00;100888.72;5028543;28;20025;-65
2022/09/15 10:21:44;;;;;;;11.20;9.38;;;;;;;15.32;100.00;100885.28;5028625;28;20079;-65
2022/09/15 10:24:35;;;;;;;10.27;9.05;;;;;;;15.35;100.00;100881.81;5028853;28;20487;-65
2022/09/15 10:27:29;;;;;;;10.00;9.05;;;;;;;15.38;100.00;100879.25;5028454;28;20029;-65
2022/09/15 10:29:58;;;;;;;11.40;9.00;;;;;;;15.42;100.00;100875.81;5028589;28;20348;-65
2022/09/15 10:32:30;;;;;;;11.63;10.50;;;;;;;15.47;100.00;100868.06;5028812;28;20110;-65
2022/09/15 10:35:10;;;;;;;13.57;10.07;;;;;;;15.52;100.00;100861.16;5028480;28;20056;-65
2022/09/15 10:37:56;;;;;;;8.65;7.82;;;;;;;15.56;100.00;100872.53;5028167;28;20092;-65
2022/09/15 10:40:33;;;;;;;8.57;6.05;;;;;;;15.60;100.00;100869.06;5029111;28;20492;-65
2022/09/15 10:43:10;;;;;;;4.30;3.72;;;;;;;15.64;100.00;100867.38;5027813;28;20053;-65
2022/09/15 10:45:38;;;;;;;6.60;4.03;;;;;;;15.66;100.00;100869.16;5027933;28;20024;-65
2022/09/15 10:48:30;;;;;;;6.10;3.33;;;;;;;15.70;100.00;100875.28;5028893;28;20180;-65
2022/09/15 10:51:17;;;;;;;4.25;3.00;;;;;;;15.69;100.00;100882.25;5027147;28;20061;-65
2022/09/15 10:54:20;;;;;;;5.07;3.20;;;;;;;15.69;100.00;100886.56;5027791;28;20026;-65
2022/09/15 10:56:50;;;;;;;5.18;2.80;;;;;;;15.65;100.00;100892.66;5028041;28;20057;-65
2022/09/15 10:59:37;;;;;;;5.35;2.95;;;;;;;15.61;100.00;100900.41;5027578;28;20354;-66
2022/09/15 11:02:27;;;;;;;4.93;2.20;;;;;;;15.51;100.00;100905.53;5027641;28;20025;-65
2022/09/15 11:05:07;;;;;;;5.05;1.27;;;;;;;15.35;100.00;100911.44;5028328;28;20106;-65
2022/09/15 11:08:11;;;;;;;1.60;0.50;;;;;;;15.26;100.00;100903.47;5027993;28;20624;-65
2022/09/15 11:10:50;;;;;;;3.17;0.68;;;;;;;15.25;100.00;100905.19;5027813;28;20326;-65
2022/09/15 11:13:32;;;;;;;3.42;0.65;;;;;;;15.29;100.00;100906.09;5027864;28;20202;-65
2022/09/15 11:16:24;;;;;;;2.10;0.70;;;;;;;15.42;100.00;100899.31;5027037;28;20043;-65
2022/09/15 11:19:20;;;;;;;3.17;0.60;;;;;;;15.73;100.00;100896.22;5027539;28;20205;-65